createdAt,value
2022-11-22T00:00:38.555Z,165.53
2022-11-22T00:03:18.749Z,175.63
2022-11-22T00:05:46.026Z,170.73
2022-11-22T00:08:13.077Z,180.50
2022-11-22T00:10:40.395Z,182.20
2022-11-22T00:13:07.347Z,177.03
2022-11-22T00:15:34.629Z,193.53
2022-11-22T00:18:01.682Z,193.13
2022-11-22T00:20:29.410Z,186.50
2022-11-22T00:22:57.460Z,184.83
2022-11-22T00:25:24.893Z,187.03
2022-11-22T00:27:51.813Z,184.43
2022-11-22T00:30:19.363Z,193.60
2022-11-22T00:32:46.245Z,187.97
2022-11-22T00:35:13.452Z,189.83
2022-11-22T00:37:40.370Z,173.70
2022-11-22T00:40:07.997Z,184.07
2022-11-22T00:42:34.916Z,176.73
2022-11-22T00:45:02.118Z,174.03
2022-11-22T00:47:29.046Z,180.97
2022-11-22T00:49:56.242Z,186.20
2022-11-22T00:52:23.132Z,184.40
2022-11-22T00:54:54.745Z,181.03
2022-11-22T00:57:22.512Z,184.13
2022-11-22T00:59:49.677Z,189.37
2022-11-22T01:02:16.925Z,185.63
2022-11-22T01:04:44.233Z,191.87
2022-11-22T01:07:11.772Z,188.57
2022-11-22T01:09:39.171Z,195.80
2022-11-22T01:12:06.134Z,183.13
2022-11-22T01:14:33.807Z,189.83
2022-11-22T01:17:00.762Z,174.67
2022-11-22T01:19:28.189Z,188.50
2022-11-22T01:21:55.396Z,173.50
2022-11-22T01:24:22.636Z,175.57
2022-11-22T01:26:49.614Z,178.17
2022-11-22T01:29:16.935Z,176.17
2022-11-22T01:31:43.926Z,166.87
2022-11-22T01:34:11.209Z,173.20
2022-11-22T01:36:38.132Z,171.30
2022-11-22T01:39:05.303Z,172.47
2022-11-22T01:41:32.234Z,165.93
2022-11-22T01:44:21.363Z,169.67
2022-11-22T01:46:52.052Z,164.47
2022-11-22T01:49:36.242Z,173.37
2022-11-22T01:52:07.134Z,152.90
2022-11-22T01:54:38.374Z,161.43
2022-11-22T01:57:10.732Z,146.30
2022-11-22T01:59:44.923Z,160.87
2022-11-22T02:02:13.027Z,164.27
2022-11-22T02:04:41.651Z,141.30
2022-11-22T02:07:41.665Z,143.13
2022-11-22T02:10:09.618Z,141.43
2022-11-22T02:12:37.170Z,124.80
2022-11-22T02:15:04.814Z,128.40
2022-11-22T02:17:31.756Z,123.73
2022-11-22T02:19:59.035Z,128.40
2022-11-22T02:22:31.668Z,126.53
2022-11-22T02:25:13.932Z,127.40
2022-11-22T02:27:41.170Z,120.93
2022-11-22T02:30:09.618Z,122.13
2022-11-22T02:32:36.679Z,127.83
2022-11-22T02:35:33.308Z,118.33
2022-11-22T02:38:13.010Z,110.77
2022-11-22T02:41:11.606Z,123.37
2022-11-22T02:43:42.155Z,121.80
2022-11-22T02:46:12.711Z,122.87
2022-11-22T02:48:46.210Z,133.60
2022-11-22T02:51:19.847Z,118.53
2022-11-22T02:53:48.993Z,129.30
2022-11-22T02:56:17.432Z,127.83
2022-11-22T02:58:44.426Z,125.27
2022-11-22T03:01:13.012Z,133.60
2022-11-22T03:03:40.097Z,149.17
2022-11-22T03:06:07.249Z,143.40
2022-11-22T03:08:34.186Z,145.07
2022-11-22T03:11:01.410Z,150.17
2022-11-22T03:13:28.362Z,129.77
2022-11-22T03:15:55.627Z,120.53
2022-11-22T03:18:22.556Z,120.10
2022-11-22T03:20:49.773Z,112.47
2022-11-22T03:23:16.795Z,127.67
2022-11-22T03:25:44.285Z,128.97
2022-11-22T03:28:11.307Z,139.70
2022-11-22T03:30:42.077Z,124.33
2022-11-22T03:33:09.660Z,118.00
2022-11-22T03:35:37.608Z,108.63
2022-11-22T03:38:04.746Z,118.43
2022-11-22T03:40:31.946Z,112.37
2022-11-22T03:43:00.505Z,113.47
2022-11-22T03:45:31.233Z,115.10
2022-11-22T03:47:58.286Z,108.10
2022-11-22T03:50:25.761Z,104.40
2022-11-22T03:52:52.642Z,115.07
2022-11-22T03:55:19.951Z,105.27
2022-11-22T03:57:46.905Z,109.57
2022-11-22T04:00:14.620Z,116.53
2022-11-22T04:02:43.783Z,104.07
2022-11-22T04:05:10.967Z,103.97
2022-11-22T04:07:38.063Z,103.53
2022-11-22T04:10:06.244Z,111.20
2022-11-22T04:12:33.334Z,113.93
2022-11-22T04:15:06.632Z,103.33
2022-11-22T04:17:46.257Z,110.67
2022-11-22T04:20:34.354Z,110.07
2022-11-22T04:23:07.218Z,107.87
2022-11-22T04:25:36.437Z,110.97
2022-11-22T04:28:04.298Z,112.37
2022-11-22T04:30:50.540Z,111.93
2022-11-22T04:33:18.042Z,125.77
2022-11-22T04:35:46.180Z,119.30
2022-11-22T04:38:13.940Z,109.73
2022-11-22T04:40:41.793Z,121.17
2022-11-22T04:43:33.314Z,111.13
2022-11-22T04:46:01.526Z,96.60
2022-11-22T04:48:28.397Z,103.77
2022-11-22T04:51:14.314Z,107.07
2022-11-22T04:53:41.414Z,121.17
2022-11-22T04:56:08.618Z,115.83
2022-11-22T04:58:35.622Z,117.37
2022-11-22T05:01:02.935Z,130.17
2022-11-22T05:03:29.924Z,125.50
2022-11-22T05:06:00.859Z,112.43
2022-11-22T05:08:27.726Z,131.30
2022-11-22T05:10:57.596Z,135.53
2022-11-22T05:13:37.650Z,139.40
2022-11-22T05:16:07.014Z,142.73
2022-11-22T05:18:34.255Z,139.67
2022-11-22T05:21:09.702Z,145.43
2022-11-22T05:23:55.197Z,151.03
2022-11-22T05:26:34.052Z,156.10
2022-11-22T05:29:06.995Z,128.33
2022-11-22T05:31:35.891Z,138.40
2022-11-22T05:34:03.142Z,133.13
2022-11-22T05:36:33.116Z,131.33
2022-11-22T05:39:00.646Z,118.97
2022-11-22T05:41:28.028Z,124.70
2022-11-22T05:43:56.592Z,125.50
2022-11-22T05:46:26.595Z,125.50
2022-11-22T05:48:56.197Z,125.30
2022-11-22T05:51:34.222Z,120.60
2022-11-22T05:54:02.563Z,125.83
2022-11-22T05:56:30.009Z,140.17
2022-11-22T05:58:57.092Z,128.47
2022-11-22T06:01:24.916Z,125.27
2022-11-22T06:03:52.695Z,112.97
2022-11-22T06:06:20.120Z,122.07
2022-11-22T06:08:48.359Z,114.23
2022-11-22T06:11:18.623Z,115.80
2022-11-22T06:13:48.355Z,114.13
2022-11-22T06:16:15.850Z,132.97
2022-11-22T06:18:43.102Z,113.87
2022-11-22T06:21:19.424Z,101.20
2022-11-22T06:23:46.653Z,104.53
2022-11-22T06:26:16.184Z,118.93
2022-11-22T06:28:44.049Z,122.70
2022-11-22T06:31:13.807Z,130.67
2022-11-22T06:33:41.758Z,122.03
2022-11-22T06:36:10.187Z,118.87
2022-11-22T06:38:38.382Z,117.90
2022-11-22T06:41:08.189Z,117.90
2022-11-22T06:43:36.353Z,125.43
2022-11-22T06:46:05.011Z,116.30
2022-11-22T06:48:33.810Z,108.37
2022-11-22T06:51:11.973Z,124.27
2022-11-22T06:53:47.438Z,125.70
2022-11-22T06:56:21.655Z,116.47
2022-11-22T06:58:50.495Z,133.37
2022-11-22T07:01:23.645Z,122.17
2022-11-22T07:03:51.757Z,125.33
2022-11-22T07:06:19.518Z,114.40
2022-11-22T07:08:46.831Z,117.00
2022-11-22T07:11:18.546Z,112.63
2022-11-22T07:13:46.344Z,112.97
2022-11-22T07:16:16.768Z,110.20
2022-11-22T07:18:44.579Z,135.13
2022-11-22T07:21:14.427Z,115.30
2022-11-22T07:23:43.028Z,109.27
2022-11-22T07:26:11.671Z,118.97
2022-11-22T07:28:39.043Z,117.30
2022-11-22T07:31:08.263Z,113.10
2022-11-22T07:33:35.702Z,126.87
2022-11-22T07:36:14.330Z,122.60
2022-11-22T07:38:41.543Z,116.47
2022-11-22T07:41:09.941Z,116.73
2022-11-22T07:43:37.355Z,116.23
2022-11-22T07:46:11.569Z,117.33
2022-11-22T07:48:38.460Z,123.83
2022-11-22T07:51:07.621Z,116.90
2022-11-22T07:53:35.895Z,118.23
2022-11-22T07:56:04.867Z,111.97
2022-11-22T07:58:32.664Z,115.37
2022-11-22T08:01:08.842Z,117.07
2022-11-22T08:03:36.773Z,109.07
2022-11-22T08:06:06.740Z,109.53
2022-11-22T08:08:35.051Z,112.23
2022-11-22T08:11:02.797Z,111.80
2022-11-22T08:13:31.117Z,114.13
2022-11-22T08:16:05.572Z,113.97
2022-11-22T08:18:34.557Z,108.63
2022-11-22T08:21:14.207Z,108.80
2022-11-22T08:23:42.446Z,103.63
2022-11-22T08:26:12.628Z,104.10
2022-11-22T08:28:40.857Z,91.07
2022-11-22T08:31:12.209Z,101.77
2022-11-22T08:33:40.216Z,99.93
2022-11-22T08:36:07.949Z,106.83
2022-11-22T08:38:36.160Z,107.60
2022-11-22T08:41:04.311Z,93.10
2022-11-22T08:43:31.841Z,103.27
2022-11-22T08:46:00.190Z,95.90
2022-11-22T08:48:28.019Z,97.43
2022-11-22T08:50:57.258Z,101.07
2022-11-22T08:53:25.357Z,102.57
2022-11-22T08:55:53.352Z,96.10
2022-11-22T08:58:20.681Z,106.20
2022-11-22T09:00:47.983Z,107.27
2022-11-22T09:03:14.944Z,101.40
2022-11-22T09:08:32.646Z,94.37
2022-11-22T09:11:06.826Z,94.17
2022-11-22T09:13:34.143Z,100.67
2022-11-22T09:16:09.830Z,104.53
2022-11-22T09:18:37.561Z,99.13
2022-11-22T09:21:11.394Z,88.47
2022-11-22T09:23:38.454Z,84.97
2022-11-22T09:26:11.930Z,85.53
2022-11-22T09:28:38.896Z,86.53
2022-11-22T09:31:08.749Z,76.60
2022-11-22T09:33:38.130Z,76.67
2022-11-22T09:36:05.493Z,78.77
2022-11-22T09:38:33.830Z,75.27
2022-11-22T09:41:10.897Z,69.77
2022-11-22T09:44:06.553Z,68.03
2022-11-22T09:46:39.588Z,74.27
2022-11-22T09:49:16.709Z,70.53
2022-11-22T09:51:54.057Z,67.83
2022-11-22T09:54:35.456Z,68.50
2022-11-22T09:57:06.366Z,93.33
2022-11-22T09:59:36.932Z,75.83
2022-11-22T10:02:19.203Z,70.50
2022-11-22T10:05:24.697Z,72.80
2022-11-22T10:08:01.218Z,68.70
2022-11-22T10:10:38.208Z,74.10
2022-11-22T10:13:19.983Z,70.10
2022-11-22T10:16:04.843Z,75.47
2022-11-22T10:18:53.707Z,67.53
2022-11-22T10:21:20.863Z,81.30
2022-11-22T10:23:48.041Z,76.47
2022-11-22T10:26:23.970Z,77.97
2022-11-22T10:29:00.303Z,74.27
2022-11-22T10:31:45.501Z,68.83
2022-11-22T10:34:47.672Z,76.23
2022-11-22T10:37:47.182Z,69.27
2022-11-22T10:40:33.036Z,70.43
2022-11-22T10:43:31.959Z,78.30
2022-11-22T10:46:03.671Z,94.50
2022-11-22T10:48:49.196Z,90.33
2022-11-22T10:51:42.596Z,82.20
2022-11-22T10:54:31.313Z,93.20
2022-11-22T10:57:55.534Z,82.30
2022-11-22T11:00:27.143Z,81.43
2022-11-22T11:02:57.824Z,85.50
2022-11-22T11:11:31.505Z,78.80
2022-11-22T11:14:07.895Z,86.37
2022-11-22T11:16:38.293Z,76.57
2022-11-22T11:19:11.412Z,83.77
2022-11-22T11:21:38.312Z,81.40
2022-11-22T11:24:14.057Z,76.43
2022-11-22T11:26:43.821Z,79.67
2022-11-22T11:29:17.006Z,81.87
2022-11-22T11:31:49.691Z,88.17
2022-11-22T11:34:29.581Z,90.43
2022-11-22T11:36:58.444Z,91.13
2022-11-22T11:39:34.347Z,96.70
2022-11-22T11:42:20.732Z,91.97
2022-11-22T11:44:48.018Z,89.30
2022-11-22T11:47:21.094Z,91.97
2022-11-22T11:49:52.251Z,99.57
2022-11-22T11:52:23.636Z,97.00
2022-11-22T11:54:56.516Z,91.90
2022-11-22T11:57:33.778Z,97.90
2022-11-22T12:00:04.029Z,94.60
2022-11-22T12:02:41.949Z,107.63
2022-11-22T12:05:12.865Z,103.40
2022-11-22T12:07:45.373Z,100.73
2022-11-22T12:10:45.486Z,99.70
2022-11-22T12:13:18.454Z,112.73
2022-11-22T12:15:45.612Z,104.90
2022-11-22T12:18:45.898Z,108.10
2022-11-22T12:21:31.131Z,100.87
2022-11-22T12:24:26.571Z,101.73
2022-11-22T12:26:48.089Z,102.03
2022-11-22T12:29:16.318Z,115.70
2022-11-22T12:32:05.308Z,108.43
2022-11-22T12:34:36.758Z,107.37
2022-11-22T12:37:20.492Z,108.00
2022-11-22T12:39:51.335Z,113.30
2022-11-22T12:42:37.082Z,103.67
2022-11-22T12:45:13.560Z,109.47
2022-11-22T12:47:44.782Z,101.03
2022-11-22T12:50:11.726Z,97.87
2022-11-22T12:52:47.665Z,103.47
2022-11-22T12:55:29.214Z,92.33
2022-11-22T12:58:19.129Z,85.17
2022-11-22T13:01:15.571Z,85.87
2022-11-22T13:03:52.577Z,100.17
2022-11-22T13:06:24.138Z,91.03
2022-11-22T13:09:04.004Z,80.63
2022-11-22T13:11:37.463Z,91.93
2022-11-22T13:14:33.160Z,95.07
2022-11-22T13:17:06.693Z,87.17
2022-11-22T13:20:00.073Z,92.70
2022-11-22T13:22:31.326Z,95.17
2022-11-22T13:25:25.233Z,83.03
2022-11-22T13:27:54.028Z,89.03
2022-11-22T13:30:26.758Z,101.17
2022-11-22T13:32:56.279Z,81.20
2022-11-22T13:35:35.912Z,87.83
2022-11-22T13:38:14.213Z,88.83
2022-11-22T13:40:45.191Z,90.03
2022-11-22T13:43:21.476Z,95.60
2022-11-22T13:46:04.384Z,86.27
2022-11-22T13:48:40.547Z,103.63
2022-11-22T13:51:12.285Z,102.40
2022-11-22T13:53:43.221Z,98.77
2022-11-22T13:56:16.707Z,101.97
2022-11-22T13:58:52.653Z,95.80
2022-11-22T14:01:35.355Z,92.07
2022-11-22T14:04:19.085Z,97.23
2022-11-22T14:06:50.844Z,101.37
2022-11-22T14:09:38.127Z,106.30
2022-11-22T14:12:11.504Z,104.20
2022-11-22T14:14:38.465Z,104.20
2022-11-22T14:17:17.751Z,101.43
2022-11-22T14:19:50.992Z,109.27
2022-11-22T14:22:46.341Z,131.67
2022-11-22T14:25:22.617Z,110.07
2022-11-22T14:28:20.245Z,110.93
2022-11-22T14:30:54.156Z,97.77
2022-11-22T14:33:24.534Z,102.53
2022-11-22T14:36:06.689Z,102.00
2022-11-22T14:38:41.423Z,101.97
2022-11-22T14:41:26.960Z,100.97
2022-11-22T14:44:31.169Z,99.63
2022-11-22T14:47:10.522Z,104.23
2022-11-22T14:49:48.472Z,100.73
2022-11-22T14:52:22.766Z,101.33
2022-11-22T14:55:13.851Z,95.50
2022-11-22T14:57:41.938Z,102.10
2022-11-22T15:00:18.264Z,92.43
2022-11-22T15:03:17.687Z,92.13
2022-11-22T15:09:15.575Z,105.23
2022-11-22T15:09:39.354Z,100.77
2022-11-22T15:12:34.783Z,107.40
2022-11-22T15:57:24.495Z,125.93
2022-11-22T15:59:54.672Z,112.83
2022-11-22T16:02:25.376Z,116.23
2022-11-22T16:06:04.315Z,115.60
2022-11-22T16:07:48.653Z,118.43
2022-11-22T16:10:22.932Z,122.77
2022-11-22T16:12:51.075Z,112.57
2022-11-22T16:15:24.616Z,123.47
2022-11-22T16:17:59.470Z,125.97
2022-11-22T16:20:33.542Z,124.90
2022-11-22T16:23:15.079Z,116.33
2022-11-22T16:25:45.555Z,118.53
2022-11-22T16:28:35.904Z,124.53
2022-11-22T16:31:18.128Z,109.43
2022-11-22T16:33:46.042Z,118.30
2022-11-22T16:36:15.105Z,110.83
2022-11-22T16:38:43.338Z,125.30
2022-11-22T16:41:18.649Z,108.80
2022-11-22T16:43:46.400Z,113.70
2022-11-22T16:46:14.104Z,123.57
2022-11-22T16:48:42.551Z,103.47
2022-11-22T16:51:21.842Z,118.00
2022-11-22T16:53:50.565Z,109.00
2022-11-22T16:56:22.372Z,109.43
2022-11-22T16:58:50.221Z,115.03
2022-11-22T17:01:22.766Z,124.73
2022-11-22T17:03:52.327Z,131.63
2022-11-22T17:06:22.872Z,98.47
2022-11-22T17:08:53.030Z,104.10
2022-11-22T17:11:23.508Z,111.20
2022-11-22T17:13:50.860Z,109.20
2022-11-22T17:16:18.264Z,103.23
2022-11-22T17:18:46.647Z,101.63
2022-11-22T17:21:18.328Z,107.53
2022-11-22T17:23:45.534Z,96.03
2022-11-22T17:26:12.820Z,94.17
2022-11-22T17:28:39.777Z,104.23
2022-11-22T17:31:15.088Z,105.83
2022-11-22T17:33:42.448Z,113.90
2022-11-22T17:36:21.101Z,106.43
2022-11-22T17:38:48.207Z,106.00
2022-11-22T17:41:15.794Z,108.83
2022-11-22T17:43:42.920Z,113.00
2022-11-22T17:46:10.366Z,118.77
2022-11-22T17:48:37.380Z,128.93
2022-11-22T17:51:06.723Z,124.70
2022-11-22T17:53:34.116Z,115.97
2022-11-22T17:56:10.448Z,110.60
2022-11-22T17:58:39.835Z,115.10
2022-11-22T18:01:10.908Z,117.47
2022-11-22T18:03:39.030Z,117.63
2022-11-22T18:06:07.187Z,116.43
2022-11-22T18:08:34.584Z,117.10
2022-11-22T18:11:02.466Z,114.97
2022-11-22T18:13:32.305Z,118.07
2022-11-22T18:16:03.773Z,116.57
2022-11-22T18:21:19.727Z,123.07
2022-11-22T18:23:46.752Z,112.20
2022-11-22T18:26:38.118Z,114.23
2022-11-22T18:31:52.205Z,104.63
2022-11-22T18:34:23.188Z,114.87
2022-11-22T18:37:06.742Z,114.47
2022-11-22T18:39:37.153Z,117.03
2022-11-22T18:42:12.223Z,117.20
2022-11-22T18:44:39.313Z,136.20
2022-11-22T18:47:06.871Z,154.90
2022-11-22T18:49:34.592Z,152.30
2022-11-22T18:52:02.293Z,145.57
2022-11-22T18:54:29.429Z,148.40
2022-11-22T18:56:56.898Z,168.50
2022-11-22T18:59:23.875Z,176.43
2022-11-22T19:01:51.567Z,122.50
2022-11-22T19:04:18.567Z,117.67
2022-11-22T19:06:46.261Z,132.30
2022-11-22T19:09:13.257Z,125.67
2022-11-22T19:11:40.669Z,124.03
2022-11-22T19:14:07.725Z,131.17
2022-11-22T19:16:35.149Z,123.30
2022-11-22T19:19:02.139Z,121.70
2022-11-22T19:21:30.312Z,122.87
2022-11-22T19:23:57.519Z,120.83
2022-11-22T19:26:26.967Z,124.13
2022-11-22T19:28:56.156Z,137.47
2022-11-22T19:31:28.988Z,135.67
2022-11-22T19:33:57.470Z,129.57
2022-11-22T19:36:32.716Z,126.17
2022-11-22T19:39:01.220Z,119.30
2022-11-22T19:41:28.563Z,133.70
2022-11-22T19:43:56.375Z,125.87
2022-11-22T19:46:25.082Z,127.50
2022-11-22T19:48:53.972Z,119.23
2022-11-22T19:51:22.338Z,119.60
2022-11-22T19:53:53.420Z,126.17
2022-11-22T19:56:20.866Z,123.10
2022-11-22T19:58:52.327Z,137.13
2022-11-22T20:01:21.033Z,122.70
2022-11-22T20:03:52.682Z,121.17
2022-11-22T20:06:20.789Z,107.23
2022-11-22T20:08:47.822Z,109.10
2022-11-22T20:11:18.682Z,117.27
2022-11-22T20:13:48.131Z,122.03
2022-11-22T20:16:22.161Z,111.37
2022-11-22T20:18:58.344Z,120.93
2022-11-22T20:21:29.489Z,114.47
2022-11-22T20:23:56.952Z,113.77
2022-11-22T20:26:25.333Z,113.87
2022-11-22T20:28:56.358Z,120.87
2022-11-22T20:31:24.135Z,128.27
2022-11-22T20:33:54.233Z,129.03
2022-11-22T20:36:24.442Z,131.87
2022-11-22T20:38:52.547Z,127.57
2022-11-22T20:41:22.253Z,116.33
2022-11-22T20:43:52.698Z,120.63
2022-11-22T20:46:27.611Z,122.63
2022-11-22T20:48:56.392Z,106.77
2022-11-22T20:51:26.424Z,122.93
2022-11-22T20:53:53.866Z,119.90
2022-11-22T20:56:21.974Z,116.87
2022-11-22T20:58:48.948Z,118.30
2022-11-22T21:01:19.336Z,115.80
2022-11-22T21:03:47.187Z,114.43
2022-11-22T21:06:15.655Z,119.57
2022-11-22T21:08:42.848Z,126.20
2022-11-22T21:11:18.006Z,106.43
2022-11-22T21:13:47.160Z,104.47
2022-11-22T21:16:24.861Z,120.37
2022-11-22T21:19:05.045Z,124.63
2022-11-22T21:21:35.744Z,126.73
2022-11-22T21:24:04.609Z,122.37
2022-11-22T21:26:32.551Z,125.90
2022-11-22T21:29:00.821Z,122.70
2022-11-22T21:31:28.425Z,120.80
2022-11-22T21:33:55.935Z,121.87
2022-11-22T21:36:22.981Z,121.83
2022-11-22T21:38:50.332Z,111.93
2022-11-22T21:44:07.770Z,122.47
2022-11-22T21:46:34.717Z,139.50
2022-11-22T21:49:01.899Z,132.10
2022-11-22T21:51:28.964Z,126.27
2022-11-22T21:54:00.652Z,123.47
2022-11-22T21:56:28.230Z,124.07
2022-11-22T21:58:56.084Z,120.80
2022-11-22T22:01:23.583Z,132.33
2022-11-22T22:03:51.146Z,138.53
2022-11-22T22:06:18.910Z,126.87
2022-11-22T22:08:46.200Z,138.40
2022-11-22T22:11:13.399Z,128.03
2022-11-22T22:13:40.701Z,123.47
2022-11-22T22:16:08.824Z,122.20
2022-11-22T22:18:37.734Z,132.60
2022-11-22T22:21:07.363Z,133.90
2022-11-22T22:23:36.025Z,123.67
2022-11-22T22:26:05.632Z,120.40
2022-11-22T22:28:35.228Z,116.23
2022-11-22T22:31:23.137Z,118.67
2022-11-22T22:33:55.444Z,121.90
2022-11-22T22:36:23.877Z,118.53
2022-11-22T22:38:51.500Z,122.10
2022-11-22T22:41:18.949Z,122.33
2022-11-22T22:43:48.358Z,115.77
2022-11-22T22:46:20.999Z,122.77
2022-11-22T22:48:49.600Z,130.17
2022-11-22T22:51:30.442Z,123.40
2022-11-22T22:53:59.094Z,125.73
2022-11-22T22:56:28.409Z,116.77
2022-11-22T22:58:57.664Z,123.17
2022-11-22T23:01:29.725Z,118.40
2022-11-22T23:03:59.085Z,113.37
2022-11-22T23:06:28.261Z,126.23
2022-11-22T23:08:56.339Z,116.80
2022-11-22T23:11:49.837Z,123.97
2022-11-22T23:14:21.435Z,127.00
2022-11-22T23:16:50.230Z,117.27
2022-11-22T23:19:20.662Z,125.43
2022-11-22T23:21:47.563Z,136.40
2022-11-22T23:24:14.827Z,135.87
2022-11-22T23:26:41.873Z,118.30
2022-11-22T23:29:09.121Z,130.00
2022-11-22T23:31:36.037Z,114.47
2022-11-22T23:34:03.229Z,124.50
2022-11-22T23:36:30.274Z,126.93
2022-11-22T23:38:57.613Z,136.40
2022-11-22T23:41:25.357Z,140.57
2022-11-22T23:43:56.520Z,131.57
2022-11-22T23:46:27.454Z,124.90
2022-11-22T23:48:56.972Z,138.03
2022-11-22T23:51:25.246Z,131.37
2022-11-22T23:54:03.184Z,150.60
2022-11-22T23:56:31.764Z,135.97
2022-11-22T23:59:00.169Z,137.57
